Time;durP1;ratioP1;P1;durP2;ratioP2;P2;SDS_P1;SDS_P2;PMS_P1;PMS_P2;Temp;Humidity;BMP_temperature;BMP_pressure;BME280_temperature;BME280_humidity;BME280_pressure;Samples;Min_cycle;Max_cycle;Signal;HPM_P1;HPM_P2
2020/12/30 00:00:35;;;;;;;28.23;14.88;;;;;;;3.88;85.78;99305.50;6245739;28;20136;-72
2020/12/30 00:03:35;;;;;;;34.72;15.38;;;;;;;3.69;86.23;99303.78;6240137;28;20396;-73
2020/12/30 00:06:38;;;;;;;28.92;14.65;;;;;;;3.74;86.46;99301.81;6221357;28;20120;-73
2020/12/30 00:09:38;;;;;;;31.42;15.05;;;;;;;3.69;87.12;99298.59;6221314;28;20099;-72
2020/12/30 00:12:40;;;;;;;33.13;15.70;;;;;;;3.62;86.74;99301.56;6221604;28;20054;-72
2020/12/30 00:15:41;;;;;;;30.90;14.82;;;;;;;3.66;86.59;99303.94;6221666;28;20046;-72
2020/12/30 00:18:41;;;;;;;27.38;14.10;;;;;;;3.72;86.59;99302.78;6220929;28;20060;-72
2020/12/30 00:21:43;;;;;;;28.00;14.55;;;;;;;3.63;87.18;99306.66;6221260;28;20129;-72
2020/12/30 00:24:44;;;;;;;25.45;13.93;;;;;;;3.63;87.13;99301.47;6221535;28;20123;-72
2020/12/30 00:27:45;;;;;;;28.25;14.60;;;;;;;3.81;86.58;99302.34;6221446;28;20057;-72
2020/12/30 00:30:46;;;;;;;28.17;14.50;;;;;;;3.78;85.80;99318.94;6221113;28;20061;-72
2020/12/30 00:33:47;;;;;;;29.70;13.82;;;;;;;3.70;85.80;99318.47;6221379;28;20046;-73
2020/12/30 00:36:49;;;;;;;25.02;14.45;;;;;;;3.80;86.10;99324.88;6221186;28;20388;-72
2020/12/30 00:39:50;;;;;;;26.88;13.55;;;;;;;3.64;86.57;99325.72;6220931;28;20084;-72
2020/12/30 00:42:50;;;;;;;28.48;14.27;;;;;;;3.56;86.99;99326.06;6225077;28;20054;-73
2020/12/30 00:45:51;;;;;;;31.77;13.85;;;;;;;3.53;87.05;99326.19;6225683;28;20095;-73
2020/12/30 00:48:52;;;;;;;25.73;13.20;;;;;;;3.55;87.23;99320.03;6225291;28;20046;-73
2020/12/30 00:51:55;;;;;;;33.40;14.52;;;;;;;3.58;86.80;99328.59;6225460;28;20046;-72
2020/12/30 00:54:56;;;;;;;28.52;14.48;;;;;;;3.63;86.09;99329.19;6225836;28;20049;-72
2020/12/30 00:57:57;;;;;;;24.52;13.93;;;;;;;3.71;86.36;99322.72;6225112;28;20049;-72
2020/12/30 01:00:58;;;;;;;24.70;13.48;;;;;;;3.67;86.28;99328.16;6225283;28;20057;-73
2020/12/30 01:03:58;;;;;;;29.50;14.63;;;;;;;3.71;85.96;99327.09;6225578;28;20423;-72
2020/12/30 01:07:00;;;;;;;24.75;13.88;;;;;;;3.59;86.12;99338.91;6225090;28;20055;-73
2020/12/30 01:10:01;;;;;;;30.95;14.02;;;;;;;3.61;86.14;99342.28;6254358;22;20096;-72
2020/12/30 01:13:02;;;;;;;26.90;14.95;;;;;;;3.50;86.88;99340.19;6249940;28;20053;-72
2020/12/30 01:16:03;;;;;;;24.98;13.75;;;;;;;3.60;86.94;99331.97;6249266;28;20482;-72
2020/12/30 01:19:04;;;;;;;26.85;14.93;;;;;;;3.54;87.77;99338.28;6249238;28;20056;-72
2020/12/30 01:22:05;;;;;;;24.85;13.90;;;;;;;3.80;87.15;99343.06;6249162;28;20510;-72
2020/12/30 01:25:06;;;;;;;26.35;14.90;;;;;;;3.67;86.43;99343.72;6249440;28;20422;-72
2020/12/30 01:28:07;;;;;;;25.10;14.00;;;;;;;3.59;87.37;99351.03;6249100;28;20084;-72
2020/12/30 01:31:08;;;;;;;30.27;13.70;;;;;;;3.51;87.32;99354.03;6249107;28;20049;-72
2020/12/30 01:34:09;;;;;;;24.20;13.70;;;;;;;3.54;87.86;99348.66;6249606;28;20129;-72
2020/12/30 01:37:11;;;;;;;28.95;12.82;;;;;;;3.70;86.43;99348.78;6248806;28;20048;-72
2020/12/30 01:40:11;;;;;;;28.98;14.70;;;;;;;3.64;86.95;99351.69;6248834;28;20056;-72
2020/12/30 01:43:13;;;;;;;28.40;13.15;;;;;;;3.56;87.19;99352.03;6249019;28;20129;-72
2020/12/30 01:46:15;;;;;;;24.73;13.55;;;;;;;3.58;85.86;99351.97;6248928;28;20045;-72
2020/12/30 01:49:17;;;;;;;24.55;13.55;;;;;;;3.58;87.50;99351.97;6248522;28;20049;-71
2020/12/30 01:52:19;;;;;;;29.40;14.07;;;;;;;3.48;87.17;99356.75;6248830;28;20056;-72
2020/12/30 01:55:25;;;;;;;28.10;14.82;;;;;;;3.38;87.53;99360.69;6248769;28;20045;-72
2020/12/30 01:58:26;;;;;;;32.90;15.38;;;;;;;3.35;87.39;99363.41;6248445;28;20054;-72
2020/12/30 02:01:29;;;;;;;29.00;14.25;;;;;;;3.52;87.42;99372.13;6248224;28;20056;-72
2020/12/30 02:04:40;;;;;;;30.90;14.05;;;;;;;3.41;87.57;99379.56;6248886;28;20175;-72
2020/12/30 02:07:42;;;;;;;26.63;13.55;;;;;;;3.36;86.81;99370.28;6248328;28;20045;-72
2020/12/30 02:10:43;;;;;;;28.08;14.40;;;;;;;3.34;86.88;99375.56;6248034;28;20054;-72
2020/12/30 02:13:43;;;;;;;24.85;13.52;;;;;;;3.44;86.56;99384.59;6248310;28;20094;-72
2020/12/30 02:16:49;;;;;;;23.80;13.30;;;;;;;3.48;87.15;99388.75;6247891;28;20048;-72
2020/12/30 02:19:50;;;;;;;25.90;13.82;;;;;;;3.50;87.01;99384.34;6247937;28;20049;-72
2020/12/30 02:22:58;;;;;;;25.17;12.80;;;;;;;3.39;87.14;99386.56;6247723;28;20525;-72
2020/12/30 02:25:59;;;;;;;29.27;13.43;;;;;;;3.45;87.04;99388.91;6247955;28;20502;-72
2020/12/30 02:29:00;;;;;;;27.33;13.88;;;;;;;3.43;86.30;99387.28;6247203;28;20057;-72
2020/12/30 02:32:01;;;;;;;23.98;12.73;;;;;;;3.44;86.98;99386.38;6247950;28;20106;-71
2020/12/30 02:35:02;;;;;;;24.10;13.45;;;;;;;3.33;87.26;99388.63;6247784;28;20053;-72
2020/12/30 02:38:03;;;;;;;23.88;13.77;;;;;;;3.29;86.82;99390.50;6247769;28;20135;-71
2020/12/30 02:41:05;;;;;;;30.80;15.02;;;;;;;3.34;87.07;99388.53;6247168;28;20049;-72
2020/12/30 02:44:07;;;;;;;31.83;16.55;;;;;;;3.37;86.65;99392.78;6247981;28;20136;-72
2020/12/30 02:47:08;;;;;;;26.67;13.63;;;;;;;3.31;87.02;99396.47;6247198;28;20053;-72
2020/12/30 02:50:08;;;;;;;27.83;14.18;;;;;;;3.31;86.89;99405.09;6247370;28;20053;-72
2020/12/30 02:53:09;;;;;;;33.85;14.80;;;;;;;3.25;86.56;99401.94;6247110;28;20062;-72
2020/12/30 02:56:11;;;;;;;30.13;14.23;;;;;;;3.20;87.19;99402.16;6246936;28;20041;-72
2020/12/30 02:59:12;;;;;;;25.40;13.60;;;;;;;3.21;86.88;99390.84;6247041;28;20053;-72
2020/12/30 03:02:13;;;;;;;26.52;15.07;;;;;;;3.09;87.28;99390.53;6247186;28;20164;-72
2020/12/30 03:05:13;;;;;;;27.38;14.65;;;;;;;3.06;87.31;99399.31;6246297;28;20049;-72
2020/12/30 03:08:14;;;;;;;27.63;14.57;;;;;;;3.08;87.13;99402.69;6246897;28;20057;-72
2020/12/30 03:11:16;;;;;;;28.48;16.17;;;;;;;3.00;87.94;99412.59;6246472;28;20052;-72
2020/12/30 03:14:19;;;;;;;28.90;13.50;;;;;;;3.12;86.89;99409.44;6246977;28;20049;-72
2020/12/30 03:17:19;;;;;;;30.02;14.15;;;;;;;3.12;87.20;99412.03;6246734;28;20053;-72
2020/12/30 03:20:20;;;;;;;26.58;14.30;;;;;;;3.12;86.78;99406.84;6246305;28;20049;-72
2020/12/30 03:23:21;;;;;;;27.45;13.55;;;;;;;3.18;86.61;99411.78;6246724;28;20056;-72
2020/12/30 03:26:23;;;;;;;25.77;14.10;;;;;;;3.01;87.41;99417.69;6246754;28;20398;-72
2020/12/30 03:29:24;;;;;;;26.38;13.48;;;;;;;3.04;87.56;99427.94;6245934;28;20045;-72
2020/12/30 03:32:26;;;;;;;26.40;13.60;;;;;;;3.07;87.44;99426.97;6246706;28;20085;-72
2020/12/30 03:35:27;;;;;;;24.75;12.95;;;;;;;2.99;87.37;99429.03;6246524;28;20056;-72
2020/12/30 03:38:28;;;;;;;25.13;13.73;;;;;;;3.10;86.44;99438.97;6246590;28;20498;-72
2020/12/30 03:41:30;;;;;;;28.90;12.98;;;;;;;2.98;87.74;99430.78;6246092;28;20411;-72
2020/12/30 03:44:30;;;;;;;25.42;12.85;;;;;;;3.14;86.47;99428.38;6246783;28;20053;-71
2020/12/30 03:47:31;;;;;;;22.92;12.68;;;;;;;2.97;87.03;99429.13;6246145;28;20049;-73
2020/12/30 03:50:32;;;;;;;24.23;12.82;;;;;;;2.99;86.82;99436.81;6245657;28;20049;-72
2020/12/30 03:53:33;;;;;;;20.85;12.75;;;;;;;2.96;87.11;99432.63;6246747;28;20053;-72
2020/12/30 03:56:35;;;;;;;27.40;12.85;;;;;;;2.83;87.48;99436.66;6246034;28;20049;-72
2020/12/30 03:59:35;;;;;;;21.02;12.20;;;;;;;2.85;87.20;99436.59;6245740;28;20425;-72
2020/12/30 04:02:36;;;;;;;26.67;13.63;;;;;;;2.92;87.19;99443.22;6246363;28;20057;-72
2020/12/30 04:05:37;;;;;;;25.50;12.20;;;;;;;2.71;87.35;99443.19;6246405;28;20045;-72
2020/12/30 04:08:38;;;;;;;27.42;12.07;;;;;;;2.68;87.87;99445.94;6245416;28;20076;-72
2020/12/30 04:11:40;;;;;;;30.10;13.13;;;;;;;2.56;88.84;99443.00;6245875;28;20049;-72
2020/12/30 04:14:40;;;;;;;24.48;11.85;;;;;;;2.54;88.67;99440.47;6246194;28;20104;-72
2020/12/30 04:17:41;;;;;;;22.40;11.15;;;;;;;2.64;87.68;99438.34;6249830;28;20045;-71
2020/12/30 04:20:42;;;;;;;24.23;11.73;;;;;;;2.44;88.51;99444.34;6250678;28;20494;-71
2020/12/30 04:23:43;;;;;;;22.77;11.43;;;;;;;2.62;87.88;99448.78;6249020;28;20052;-72
2020/12/30 04:26:45;;;;;;;26.50;11.27;;;;;;;2.50;88.08;99446.69;6250367;28;20077;-71
2020/12/30 04:29:45;;;;;;;22.70;11.38;;;;;;;2.40;88.81;99453.16;6250587;28;20053;-72
2020/12/30 04:32:46;;;;;;;24.65;11.90;;;;;;;2.44;88.43;99452.13;6250727;28;20049;-72
2020/12/30 04:35:48;;;;;;;24.90;12.85;;;;;;;2.35;89.10;99449.91;6250852;28;20498;-72
2020/12/30 04:38:49;;;;;;;23.25;11.80;;;;;;;2.34;88.41;99449.06;6249711;28;20049;-72
2020/12/30 04:41:52;;;;;;;23.45;12.55;;;;;;;2.32;89.42;99457.78;6250174;28;20429;-71
2020/12/30 04:44:54;;;;;;;27.35;11.90;;;;;;;2.32;89.22;99455.19;6250514;28;20057;-72
2020/12/30 04:47:55;;;;;;;25.55;11.52;;;;;;;2.18;89.49;99461.81;6250020;28;20513;-72
2020/12/30 04:50:56;;;;;;;22.70;12.25;;;;;;;2.28;89.44;99457.09;6250329;28;20136;-72
2020/12/30 04:54:00;;;;;;;26.02;13.13;;;;;;;2.19;89.10;99462.66;6250127;28;20049;-72
2020/12/30 04:57:03;;;;;;;26.38;14.63;;;;;;;2.18;89.23;99459.22;6250090;28;20073;-71
2020/12/30 05:00:06;;;;;;;24.98;12.93;;;;;;;2.15;89.27;99456.75;6249605;28;20103;-72
2020/12/30 05:03:08;;;;;;;24.02;12.68;;;;;;;2.15;88.99;99461.91;6250236;28;20057;-72
2020/12/30 05:06:12;;;;;;;25.15;13.85;;;;;;;2.10;89.49;99463.84;6249683;28;20056;-72
2020/12/30 05:09:14;;;;;;;27.67;13.75;;;;;;;2.09;88.96;99469.06;6249577;28;20054;-72
2020/12/30 05:12:17;;;;;;;26.00;13.88;;;;;;;2.05;89.46;99473.56;6249866;28;20057;-71
2020/12/30 05:15:18;;;;;;;25.08;13.75;;;;;;;2.04;89.85;99479.63;6250030;28;20049;-72
2020/12/30 05:18:20;;;;;;;31.30;14.32;;;;;;;2.10;89.57;99482.00;6241033;28;20418;-72
2020/12/30 05:21:21;;;;;;;33.10;14.23;;;;;;;2.03;89.38;99483.13;6237633;28;20049;-72
2020/12/30 05:24:23;;;;;;;26.08;13.52;;;;;;;2.05;89.59;99485.66;6235426;28;20049;-72
2020/12/30 05:27:26;;;;;;;32.83;14.40;;;;;;;1.93;89.22;99500.78;6229494;28;20053;-72
2020/12/30 05:30:29;;;;;;;27.80;14.95;;;;;;;1.88;90.23;99496.66;6224438;28;20054;-73
2020/12/30 05:33:30;;;;;;;28.48;15.52;;;;;;;1.85;90.48;99497.63;6225111;28;20495;-72
2020/12/30 05:36:31;;;;;;;27.23;14.80;;;;;;;1.85;90.22;99500.22;6228321;28;20140;-73
2020/12/30 05:39:34;;;;;;;27.40;13.43;;;;;;;1.91;89.59;99510.34;6248768;28;20061;-72
2020/12/30 05:42:36;;;;;;;28.25;13.98;;;;;;;1.85;89.94;99507.13;6249234;28;20049;-72
2020/12/30 05:45:44;;;;;;;31.02;14.40;;;;;;;1.76;90.59;99514.34;6249107;28;20100;-72
2020/12/30 05:48:46;;;;;;;27.05;14.10;;;;;;;1.66;90.87;99520.78;6248462;28;20053;-72
2020/12/30 05:51:49;;;;;;;26.55;15.13;;;;;;;1.65;91.04;99521.69;6248849;28;20053;-73
2020/12/30 05:54:54;;;;;;;25.25;14.30;;;;;;;1.67;90.92;99535.41;6249074;28;20192;-72
2020/12/30 05:57:55;;;;;;;25.27;13.23;;;;;;;1.67;90.37;99534.56;6248475;28;20099;-72
2020/12/30 06:00:56;;;;;;;30.40;13.90;;;;;;;1.64;90.31;99532.94;6248509;28;20053;-72
2020/12/30 06:04:14;;;;;;;27.50;14.05;;;;;;;1.59;90.30;99549.53;6248819;28;20053;-72
2020/12/30 06:07:17;;;;;;;29.20;14.88;;;;;;;1.71;90.89;99544.75;6247864;28;20439;-72
2020/12/30 06:10:20;;;;;;;20.38;11.98;;;;;;;1.63;90.73;99543.34;6247866;28;20457;-71
2020/12/30 06:13:31;;;;;;;27.50;13.30;;;;;;;1.51;91.13;99549.81;6248312;28;20490;-72
2020/12/30 06:16:34;;;;;;;27.92;14.48;;;;;;;1.72;90.83;99553.34;6248166;28;20087;-72
2020/12/30 06:19:36;;;;;;;26.13;13.82;;;;;;;1.49;91.47;99556.78;6247681;28;20445;-72
2020/12/30 06:22:39;;;;;;;28.13;13.95;;;;;;;1.41;91.04;99554.47;6248241;28;20060;-71
2020/12/30 06:25:42;;;;;;;29.63;14.27;;;;;;;1.41;91.78;99567.41;6248056;28;20045;-72
2020/12/30 06:28:49;;;;;;;27.17;14.13;;;;;;;1.45;91.81;99563.81;6247477;28;20529;-72
2020/12/30 06:31:50;;;;;;;30.02;13.82;;;;;;;1.49;91.23;99569.72;6247866;28;20583;-72
2020/12/30 06:34:51;;;;;;;25.35;13.43;;;;;;;1.46;91.54;99569.84;6239796;28;20057;-72
2020/12/30 06:37:52;;;;;;;33.25;14.70;;;;;;;1.35;92.07;99572.78;6229903;28;20418;-71
2020/12/30 06:40:54;;;;;;;27.95;13.43;;;;;;;1.45;92.17;99570.72;6222306;28;20058;-72
2020/12/30 06:43:56;;;;;;;29.85;13.82;;;;;;;1.28;92.73;99576.50;6223346;28;20058;-72
2020/12/30 06:46:57;;;;;;;25.73;13.23;;;;;;;1.37;91.77;99571.00;6222992;28;20483;-71
2020/12/30 06:50:14;;;;;;;29.13;14.88;;;;;;;1.23;92.61;99579.25;6222655;28;20049;-72
2020/12/30 06:53:33;;;;;;;31.95;13.10;;;;;;;1.38;92.32;99584.78;6223259;28;20069;-72
2020/12/30 06:56:38;;;;;;;29.55;13.75;;;;;;;1.40;92.56;99588.16;6222602;28;20085;-72
2020/12/30 06:59:40;;;;;;;24.65;13.27;;;;;;;1.29;91.90;99596.31;6222600;28;20050;-72
2020/12/30 07:02:41;;;;;;;27.52;13.85;;;;;;;1.25;92.70;99598.13;6222698;28;20454;-72
2020/12/30 07:05:42;;;;;;;25.55;13.55;;;;;;;1.21;92.47;99599.13;6240985;28;20056;-71
2020/12/30 07:08:43;;;;;;;27.13;12.93;;;;;;;1.16;92.63;99597.59;6246542;28;20049;-72
2020/12/30 07:11:49;;;;;;;32.30;13.02;;;;;;;1.25;92.59;99611.06;6246957;28;20054;-71
2020/12/30 07:14:50;;;;;;;28.00;14.55;;;;;;;1.17;92.54;99607.06;6247057;28;20103;-71
2020/12/30 07:17:53;;;;;;;26.13;12.82;;;;;;;1.12;92.61;99616.72;6246535;28;20103;-72
2020/12/30 07:20:54;;;;;;;24.73;12.88;;;;;;;1.14;92.84;99618.38;6246573;28;20056;-71
2020/12/30 07:23:57;;;;;;;28.92;13.90;;;;;;;1.20;92.87;99612.97;6246811;28;20496;-71
2020/12/30 07:27:00;;;;;;;28.25;13.57;;;;;;;1.14;92.98;99612.34;6246620;28;20045;-71
2020/12/30 07:30:05;;;;;;;25.40;12.32;;;;;;;1.12;92.89;99614.13;6245862;28;20053;-71
2020/12/30 07:33:06;;;;;;;31.52;14.82;;;;;;;1.18;93.32;99622.56;6246382;28;20045;-71
2020/12/30 07:36:09;;;;;;;32.47;15.38;;;;;;;1.14;93.14;99617.53;6246205;28;20058;-72
2020/12/30 07:39:10;;;;;;;29.35;13.35;;;;;;;1.20;93.56;99631.09;6246261;28;20052;-72
2020/12/30 07:42:12;;;;;;;32.85;14.25;;;;;;;1.16;94.05;99631.25;6246564;28;20041;-72
2020/12/30 07:45:19;;;;;;;25.38;13.23;;;;;;;1.28;93.38;99638.63;6246605;28;20095;-71
2020/12/30 07:48:22;;;;;;;31.77;14.93;;;;;;;1.19;93.18;99641.50;6246288;28;20049;-72
2020/12/30 07:51:23;;;;;;;30.20;15.15;;;;;;;1.17;93.70;99644.13;6245907;28;20050;-71
2020/12/30 07:54:25;;;;;;;25.88;14.02;;;;;;;1.35;93.11;99649.59;6246417;28;20049;-71
2020/12/30 07:57:27;;;;;;;27.40;13.90;;;;;;;1.29;93.89;99654.97;6245805;28;20050;-71
2020/12/30 08:00:30;;;;;;;29.60;13.55;;;;;;;1.24;94.06;99658.56;6245879;28;20053;-71
2020/12/30 08:03:31;;;;;;;32.78;14.90;;;;;;;1.19;93.63;99662.19;6245883;28;20045;-71
2020/12/30 08:06:42;;;;;;;36.50;15.65;;;;;;;1.17;94.69;99671.75;6246010;28;20045;-71
2020/12/30 08:09:44;;;;;;;30.75;14.80;;;;;;;1.22;94.28;99675.88;6245524;28;20469;-71
2020/12/30 08:12:45;;;;;;;36.45;15.57;;;;;;;1.20;94.04;99672.50;6246004;28;20049;-71
2020/12/30 08:15:53;;;;;;;24.88;14.07;;;;;;;1.25;94.35;99682.69;6245948;28;20060;-71
2020/12/30 08:18:54;;;;;;;32.25;14.68;;;;;;;1.39;94.06;99680.50;6245655;28;20498;-72
2020/12/30 08:22:04;;;;;;;31.80;14.65;;;;;;;1.35;93.21;99686.66;6245803;28;20057;-71
2020/12/30 08:25:05;;;;;;;35.42;16.17;;;;;;;1.37;93.71;99692.66;6246169;28;20103;-72
2020/12/30 08:28:06;;;;;;;28.27;13.70;;;;;;;1.39;93.52;99697.78;6245549;28;20049;-72
2020/12/30 08:31:16;;;;;;;24.98;13.73;;;;;;;1.42;93.48;99701.13;6245363;28;20053;-72
2020/12/30 08:34:24;;;;;;;29.85;15.77;;;;;;;1.38;94.21;99704.69;6245777;28;20152;-72
2020/12/30 08:37:27;;;;;;;28.85;15.02;;;;;;;1.39;94.00;99700.38;6245548;28;20410;-72
2020/12/30 08:40:31;;;;;;;28.98;15.27;;;;;;;1.41;93.73;99707.19;6245305;28;20053;-73
2020/12/30 08:43:41;;;;;;;28.85;14.85;;;;;;;1.60;93.09;99702.25;6245737;28;20407;-72
2020/12/30 08:46:48;;;;;;;31.65;15.25;;;;;;;1.57;92.82;99707.53;6245474;28;20469;-71
2020/12/30 08:49:51;;;;;;;31.10;14.88;;;;;;;1.63;92.77;99706.47;6245361;28;20086;-72
2020/12/30 08:52:55;;;;;;;29.27;15.55;;;;;;;1.72;93.01;99711.34;6245591;28;20422;-72
2020/12/30 08:55:56;;;;;;;34.78;14.13;;;;;;;1.77;93.18;99710.31;6245430;28;20045;-71
2020/12/30 08:58:58;;;;;;;26.00;14.50;;;;;;;1.84;91.81;99716.09;6245560;28;20068;-73
2020/12/30 09:02:11;;;;;;;26.75;13.77;;;;;;;2.00;91.25;99716.44;6244504;28;20065;-72
2020/12/30 09:05:12;;;;;;;26.92;14.10;;;;;;;2.09;91.12;99720.44;6249953;28;20094;-71
2020/12/30 09:08:14;;;;;;;30.50;13.13;;;;;;;2.19;90.90;99714.88;6249496;28;20053;-72
2020/12/30 09:11:17;;;;;;;26.20;12.93;;;;;;;2.35;90.54;99725.53;6249415;28;20050;-71
2020/12/30 09:14:20;;;;;;;25.40;12.80;;;;;;;2.48;89.44;99728.53;6249750;28;20449;-71
2020/12/30 09:17:21;;;;;;;25.80;13.82;;;;;;;2.39;89.60;99724.53;6249558;28;20049;-72
2020/12/30 09:20:22;;;;;;;25.02;13.02;;;;;;;2.43;88.69;99727.84;6249253;28;20056;-72
2020/12/30 09:23:24;;;;;;;27.02;13.48;;;;;;;2.51;88.63;99731.88;6249563;28;20059;-72
2020/12/30 09:26:29;;;;;;;25.25;13.30;;;;;;;2.70;88.21;99726.84;6249253;28;20049;-71
2020/12/30 09:29:30;;;;;;;25.08;12.52;;;;;;;2.62;88.23;99731.47;6249069;28;20183;-71
2020/12/30 09:32:31;;;;;;;26.38;13.70;;;;;;;2.64;87.71;99734.00;6249335;28;20049;-71
2020/12/30 09:35:32;;;;;;;24.23;13.60;;;;;;;2.78;87.34;99734.34;6249510;28;20053;-73
2020/12/30 09:38:33;;;;;;;27.77;12.88;;;;;;;2.95;86.41;99731.09;6248681;28;20045;-72
2020/12/30 09:41:34;;;;;;;24.33;12.38;;;;;;;2.96;85.90;99728.44;6248777;28;20053;-71
2020/12/30 09:44:35;;;;;;;23.50;12.48;;;;;;;2.91;85.77;99732.97;6249228;28;20076;-71
2020/12/30 09:47:37;;;;;;;24.48;12.70;;;;;;;3.04;85.40;99729.00;6248813;28;20453;-71
2020/12/30 09:50:39;;;;;;;22.70;12.40;;;;;;;3.09;85.72;99736.63;6248491;28;20573;-71
2020/12/30 09:53:40;;;;;;;23.02;12.35;;;;;;;3.04;85.68;99735.91;6249004;28;20498;-72
2020/12/30 09:56:41;;;;;;;26.70;12.05;;;;;;;3.32;85.16;99733.09;6248672;28;20057;-72
2020/12/30 09:59:43;;;;;;;20.02;11.65;;;;;;;3.35;84.71;99739.91;6248034;28;20426;-71
2020/12/30 10:02:45;;;;;;;24.98;11.77;;;;;;;3.38;84.96;99738.03;6248914;28;20049;-71
2020/12/30 10:05:45;;;;;;;21.80;12.23;;;;;;;3.26;84.90;99746.31;6248644;28;20144;-72
2020/12/30 10:08:46;;;;;;;19.77;11.40;;;;;;;3.18;85.24;99745.75;6248102;28;20049;-73
2020/12/30 10:11:47;;;;;;;22.27;11.82;;;;;;;3.35;85.90;99745.09;6248600;28;20521;-72
2020/12/30 10:14:48;;;;;;;22.45;10.95;;;;;;;3.24;84.84;99740.34;6247146;28;20437;-73
2020/12/30 10:17:49;;;;;;;25.55;12.07;;;;;;;3.20;84.88;99738.78;6247715;28;20053;-73
2020/12/30 10:20:51;;;;;;;23.88;12.85;;;;;;;3.26;84.95;99741.13;6247499;28;20103;-72
2020/12/30 10:23:52;;;;;;;23.92;12.82;;;;;;;3.26;85.37;99752.34;6245860;28;20046;-71
2020/12/30 10:26:53;;;;;;;26.27;12.52;;;;;;;3.24;85.89;99746.38;6247485;28;20056;-72
2020/12/30 10:29:54;;;;;;;22.17;11.43;;;;;;;3.17;85.77;99751.88;6247403;28;20133;-72
2020/12/30 10:32:56;;;;;;;24.08;13.60;;;;;;;3.18;85.70;99751.81;6247621;28;20195;-72
2020/12/30 10:35:57;;;;;;;24.10;12.82;;;;;;;3.19;85.59;99757.88;6246759;28;20061;-73
2020/12/30 10:38:59;;;;;;;24.05;13.07;;;;;;;3.43;85.78;99756.03;6239533;28;20049;-73
2020/12/30 10:42:02;;;;;;;23.40;14.05;;;;;;;3.52;85.53;99759.09;6235578;28;20049;-73
2020/12/30 10:45:03;;;;;;;27.35;14.75;;;;;;;3.58;85.03;99751.97;6245200;28;20054;-74
2020/12/30 10:48:05;;;;;;;27.55;12.98;;;;;;;3.59;85.08;99751.06;6222737;28;20487;-74
2020/12/30 10:51:10;;;;;;;25.73;14.07;;;;;;;3.68;85.00;99751.56;6222714;28;20092;-73
2020/12/30 10:54:11;;;;;;;28.02;15.07;;;;;;;3.54;85.44;99761.63;6231379;28;20053;-77
2020/12/30 10:57:11;;;;;;;34.42;14.43;;;;;;;3.48;85.74;99762.72;6222607;28;20442;-72
2020/12/30 11:00:12;;;;;;;36.15;14.93;;;;;;;3.58;85.64;99770.16;6245692;28;20053;-73
2020/12/30 11:03:14;;;;;;;28.20;14.70;;;;;;;3.49;85.69;99772.22;6245930;28;20493;-73
2020/12/30 11:06:15;;;;;;;29.38;15.77;;;;;;;3.42;86.43;99763.00;6245787;28;20041;-72
2020/12/30 11:09:16;;;;;;;27.90;15.80;;;;;;;3.43;86.66;99764.66;6246275;28;20060;-73
2020/12/30 11:12:17;;;;;;;27.45;15.68;;;;;;;3.55;86.78;99766.78;6246284;28;20096;-72
2020/12/30 11:15:17;;;;;;;27.80;15.05;;;;;;;3.67;85.51;99760.22;6246519;28;20430;-72
2020/12/30 11:18:20;;;;;;;34.67;16.17;;;;;;;3.66;86.39;99761.16;6246208;28;20095;-72
2020/12/30 11:21:21;;;;;;;31.38;16.27;;;;;;;3.80;85.50;99756.22;6236268;28;20053;-70
2020/12/30 11:24:22;;;;;;;33.28;16.17;;;;;;;3.66;85.91;99763.75;6222159;28;20128;-72
2020/12/30 11:27:23;;;;;;;32.58;16.55;;;;;;;3.60;86.59;99760.56;6222041;28;20052;-73
2020/12/30 11:30:24;;;;;;;33.53;17.70;;;;;;;3.59;87.59;99758.84;6222000;28;20050;-72
2020/12/30 11:33:25;;;;;;;34.67;16.50;;;;;;;3.67;86.89;99760.22;6242931;28;20053;-74
2020/12/30 11:36:27;;;;;;;32.10;16.83;;;;;;;3.71;86.99;99759.19;6246504;28;20049;-73
2020/12/30 11:39:28;;;;;;;35.15;16.95;;;;;;;3.71;86.74;99761.81;6245791;28;20111;-72
2020/12/30 11:42:29;;;;;;;32.75;16.92;;;;;;;3.80;86.91;99761.41;6246638;28;20053;-73
2020/12/30 11:45:29;;;;;;;35.30;16.80;;;;;;;4.01;86.73;99769.25;6246129;28;20127;-72
2020/12/30 11:48:31;;;;;;;32.08;16.77;;;;;;;4.19;86.38;99767.63;6246254;28;20045;-72
2020/12/30 11:51:37;;;;;;;33.72;16.60;;;;;;;4.02;86.48;99765.72;6246018;28;20498;-73
2020/12/30 11:54:38;;;;;;;35.13;17.23;;;;;;;3.93;86.04;99766.97;6246316;28;20049;-73
2020/12/30 11:57:39;;;;;;;30.02;15.75;;;;;;;3.96;85.92;99771.19;6246169;28;20103;-74
2020/12/30 12:00:39;;;;;;;31.33;16.60;;;;;;;4.08;86.15;99768.06;6245826;28;20107;-74
2020/12/30 12:03:41;;;;;;;31.90;15.43;;;;;;;4.07;85.67;99768.97;6246433;28;20057;-73
2020/12/30 12:06:42;;;;;;;34.20;15.95;;;;;;;4.00;86.11;99776.19;6245975;28;20054;-73
2020/12/30 12:09:43;;;;;;;30.92;15.45;;;;;;;4.07;85.59;99772.41;6245625;28;20533;-74
2020/12/30 12:12:43;;;;;;;33.50;16.40;;;;;;;4.15;86.03;99766.91;6246252;28;20060;-73
2020/12/30 12:15:44;;;;;;;33.90;16.17;;;;;;;4.14;85.19;99770.41;6245995;28;20403;-73
2020/12/30 12:18:46;;;;;;;32.03;16.35;;;;;;;4.06;85.08;99769.91;6245439;28;20049;-72
2020/12/30 12:21:48;;;;;;;35.80;17.33;;;;;;;4.03;85.58;99776.06;6245530;28;20461;-73
2020/12/30 12:24:48;;;;;;;30.85;15.77;;;;;;;4.16;85.72;99772.94;6246085;28;20111;-72
2020/12/30 12:27:49;;;;;;;29.10;16.40;;;;;;;4.09;85.40;99774.97;6245220;28;20049;-72
2020/12/30 12:30:50;;;;;;;35.22;17.48;;;;;;;4.04;86.00;99775.16;6245333;28;20053;-72
2020/12/30 12:33:52;;;;;;;35.15;17.52;;;;;;;3.99;86.54;99778.84;6245928;28;20053;-71
2020/12/30 12:36:52;;;;;;;30.65;16.98;;;;;;;4.04;86.33;99766.50;6246290;28;20111;-71
2020/12/30 12:39:54;;;;;;;27.52;15.75;;;;;;;4.15;85.80;99773.88;6250115;28;20472;-72
2020/12/30 12:42:55;;;;;;;32.13;16.98;;;;;;;4.11;85.94;99774.91;6250463;28;20048;-72
2020/12/30 12:45:56;;;;;;;31.23;17.55;;;;;;;4.04;85.85;99775.16;6238216;28;20049;-72
2020/12/30 12:48:58;;;;;;;31.67;16.48;;;;;;;4.05;85.63;99771.66;6225651;28;20073;-72
2020/12/30 12:51:59;;;;;;;27.70;15.32;;;;;;;4.13;86.34;99770.47;6225948;28;20505;-71
2020/12/30 12:55:00;;;;;;;31.08;15.48;;;;;;;4.17;85.96;99770.28;6225796;28;20054;-72
2020/12/30 12:58:01;;;;;;;28.65;15.00;;;;;;;4.17;85.59;99778.06;6225471;28;20073;-71
2020/12/30 13:01:02;;;;;;;28.17;14.90;;;;;;;4.03;85.92;99764.81;6225293;28;20132;-72
2020/12/30 13:04:04;;;;;;;29.73;15.23;;;;;;;4.00;85.49;99776.19;6225511;28;20050;-71
2020/12/30 13:07:04;;;;;;;27.67;14.25;;;;;;;4.00;85.25;99772.75;6242069;28;20045;-71
2020/12/30 13:10:05;;;;;;;28.58;15.93;;;;;;;3.93;85.87;99774.75;6249507;28;20427;-71
2020/12/30 13:13:06;;;;;;;26.92;15.30;;;;;;;3.96;85.68;99774.63;6250140;28;20056;-72
2020/12/30 13:16:07;;;;;;;27.88;15.07;;;;;;;3.93;86.75;99777.34;6249882;28;20095;-72
2020/12/30 13:19:08;;;;;;;27.60;15.68;;;;;;;3.97;86.13;99788.47;6249270;28;20691;-75
2020/12/30 13:22:09;;;;;;;31.30;16.75;;;;;;;4.01;86.16;99782.25;6243036;28;20050;-71
2020/12/30 13:25:10;;;;;;;27.88;15.27;;;;;;;4.12;86.55;99787.81;6242501;28;20049;-71
2020/12/30 13:28:11;;;;;;;35.67;16.73;;;;;;;4.01;85.57;99784.84;6224278;28;20050;-72
2020/12/30 13:31:12;;;;;;;30.15;16.73;;;;;;;4.12;86.06;99786.97;6241042;28;20061;-72
2020/12/30 13:34:14;;;;;;;30.23;17.50;;;;;;;4.02;86.33;99782.16;6249272;28;20045;-73
2020/12/30 13:37:15;;;;;;;36.42;17.02;;;;;;;4.29;85.66;99787.13;6248719;28;20046;-72
2020/12/30 13:40:16;;;;;;;31.60;17.30;;;;;;;4.26;86.06;99788.06;6247634;28;20052;-72
2020/12/30 13:43:17;;;;;;;32.80;18.23;;;;;;;4.31;85.36;99782.69;6249397;28;20049;-72
2020/12/30 13:46:18;;;;;;;32.08;17.50;;;;;;;4.37;85.19;99789.41;6248851;28;20079;-73
2020/12/30 13:49:20;;;;;;;35.50;19.17;;;;;;;4.15;85.39;99792.06;6244683;28;20417;-73
2020/12/30 13:52:21;;;;;;;38.38;19.00;;;;;;;4.13;85.67;99786.06;6244982;28;20049;-73
2020/12/30 13:55:22;;;;;;;32.95;18.42;;;;;;;4.07;86.12;99787.19;6245055;28;20102;-73
2020/12/30 13:58:23;;;;;;;37.25;18.85;;;;;;;4.22;85.47;99789.13;6244514;28;20472;-72
2020/12/30 14:01:24;;;;;;;41.65;21.02;;;;;;;4.08;86.52;99784.50;6241238;28;20061;-72
2020/12/30 14:04:26;;;;;;;31.08;17.73;;;;;;;4.03;87.33;99790.81;6232478;28;20054;-72